createdAt,value
2023-01-28T00:01:16.847Z,1.70
2023-01-28T00:06:19.126Z,1.30
2023-01-28T00:11:22.522Z,1.50
2023-01-28T00:16:27.419Z,1.30
2023-01-28T00:21:29.215Z,1.50
2023-01-28T00:26:30.939Z,1.20
2023-01-28T00:31:35.265Z,1.40
2023-01-28T00:36:39.388Z,1.60
2023-01-28T00:41:41.135Z,1.50
2023-01-28T00:46:42.854Z,1.70
2023-01-28T00:51:44.596Z,1.50
2023-01-28T00:56:46.429Z,1.50
2023-01-28T01:01:48.351Z,1.50
2023-01-28T01:06:50.133Z,1.50
2023-01-28T01:11:51.842Z,1.40
2023-01-28T01:16:53.720Z,1.60
2023-01-28T01:21:57.040Z,1.90
2023-01-28T01:32:00.907Z,1.10
2023-01-28T01:37:03.933Z,1.60
2023-01-28T01:42:11.849Z,1.70
2023-01-28T01:47:16.859Z,1.50
2023-01-28T01:52:24.103Z,1.10
2023-01-28T01:57:32.712Z,1.90
2023-01-28T02:02:43.073Z,1.70
2023-01-28T02:07:46.895Z,1.80
2023-01-28T02:12:58.144Z,1.80
2023-01-28T02:18:01.321Z,1.60
2023-01-28T02:23:14.304Z,1.30
2023-01-28T02:28:43.866Z,1.30
2023-01-28T02:33:46.437Z,1.30
2023-01-28T02:38:51.960Z,1.20
2023-01-28T02:43:54.174Z,1.20
2023-01-28T02:48:56.417Z,1.20
2023-01-28T02:54:08.105Z,1.10
2023-01-28T02:59:31.003Z,1.30
2023-01-28T03:05:02.622Z,1.30
2023-01-28T03:10:09.377Z,1.30
2023-01-28T03:15:35.719Z,1.90
2023-01-28T03:21:08.912Z,1.40
2023-01-28T03:26:33.385Z,1.40
2023-01-28T03:31:56.064Z,1.30
2023-01-28T03:36:59.756Z,1.40
2023-01-28T03:42:22.420Z,1.20
2023-01-28T03:47:36.823Z,1.00
2023-01-28T03:52:40.108Z,1.20
2023-01-28T03:57:50.651Z,1.00
2023-01-28T04:02:52.405Z,1.10
2023-01-28T04:07:55.904Z,1.20
2023-01-28T04:13:07.765Z,1.00
2023-01-28T04:18:10.056Z,1.30
2023-01-28T04:23:12.395Z,0.90
2023-01-28T04:28:14.058Z,1.10
2023-01-28T04:33:15.922Z,0.90
2023-01-28T04:38:43.677Z,0.90
2023-01-28T04:44:03.234Z,0.90
2023-01-28T04:54:42.784Z,1.10
2023-01-28T04:59:44.765Z,1.00
2023-01-28T05:04:47.370Z,0.90
2023-01-28T05:10:04.220Z,0.80
2023-01-28T05:15:07.042Z,0.90
2023-01-28T05:20:10.833Z,1.20
2023-01-28T05:25:13.517Z,1.20
2023-01-28T05:30:16.365Z,0.90
2023-01-28T05:35:18.862Z,1.00
2023-01-28T05:40:21.294Z,0.70
2023-01-28T05:45:23.303Z,0.70
2023-01-28T05:50:37.632Z,0.50
2023-01-28T05:55:56.497Z,0.70
2023-01-28T06:00:58.653Z,0.50
2023-01-28T06:06:09.136Z,0.70
2023-01-28T06:11:11.002Z,0.60
2023-01-28T06:16:13.589Z,0.60
2023-01-28T06:21:34.169Z,1.00
2023-01-28T06:26:35.941Z,1.00
2023-01-28T06:31:37.891Z,0.80
2023-01-28T06:36:39.591Z,1.10
2023-01-28T06:41:41.389Z,0.90
2023-01-28T06:46:43.466Z,0.60
2023-01-28T06:51:45.274Z,0.90
2023-01-28T06:56:46.919Z,0.80
2023-01-28T07:01:48.649Z,1.20
2023-01-28T07:06:50.477Z,0.90
2023-01-28T07:11:52.273Z,1.10
2023-01-28T07:16:54.109Z,1.20
2023-01-28T07:21:58.336Z,0.90
2023-01-28T07:27:00.005Z,0.90
2023-01-28T07:32:02.283Z,0.80
2023-01-28T07:37:04.096Z,0.80
2023-01-28T07:42:06.512Z,0.80
2023-01-28T07:47:12.711Z,1.00
2023-01-28T07:52:15.385Z,1.30
2023-01-28T07:57:23.366Z,1.00
2023-01-28T08:02:25.157Z,1.00
2023-01-28T08:07:27.835Z,1.00
2023-01-28T08:12:29.719Z,0.80
2023-01-28T08:17:31.945Z,0.70
2023-01-28T08:22:33.595Z,0.80
2023-01-28T08:27:35.305Z,0.60
2023-01-28T08:32:37.993Z,0.90
2023-01-28T08:37:39.662Z,0.70
2023-01-28T08:42:47.306Z,0.90
2023-01-28T08:47:51.013Z,0.80
2023-01-28T08:52:57.522Z,0.60
2023-01-28T08:58:03.792Z,0.70
2023-01-28T09:03:06.658Z,0.60
2023-01-28T09:08:11.288Z,0.80
2023-01-28T09:13:15.920Z,0.50
2023-01-28T09:18:18.183Z,0.60
2023-01-28T09:23:19.889Z,0.60
2023-01-28T09:28:21.547Z,0.60
2023-01-28T09:33:23.251Z,0.50
2023-01-28T09:38:24.902Z,0.60
2023-01-28T09:43:35.862Z,0.70
2023-01-28T09:48:42.144Z,0.70
2023-01-28T09:53:49.953Z,0.60
2023-01-28T09:58:52.282Z,0.50
2023-01-28T10:04:06.433Z,0.60
2023-01-28T10:09:33.011Z,0.70
2023-01-28T10:15:05.085Z,0.60
2023-01-28T10:20:20.908Z,0.70
2023-01-28T10:25:26.050Z,0.60
2023-01-28T10:30:31.778Z,0.50
2023-01-28T10:35:38.571Z,0.30
2023-01-28T10:40:42.154Z,0.60
2023-01-28T10:45:55.482Z,0.50
2023-01-28T10:51:01.955Z,0.70
2023-01-28T10:56:28.097Z,0.50
2023-01-28T11:01:40.220Z,0.60
2023-01-28T11:06:41.891Z,0.60
2023-01-28T11:11:43.541Z,0.50
2023-01-28T11:16:45.508Z,0.60
2023-01-28T11:21:54.548Z,0.40
2023-01-28T11:26:58.729Z,0.50
2023-01-28T11:32:01.492Z,0.30
2023-01-28T11:37:12.507Z,0.50
2023-01-28T11:42:22.171Z,0.50
2023-01-28T11:48:00.803Z,0.50
2023-01-28T11:53:32.725Z,0.50
2023-01-28T11:59:00.700Z,0.40
2023-01-28T12:04:26.801Z,0.60
2023-01-28T12:09:49.980Z,0.40
2023-01-28T12:15:19.929Z,0.40
2023-01-28T12:20:21.569Z,0.50
2023-01-28T12:25:42.753Z,0.50
2023-01-28T12:31:19.549Z,0.40
2023-01-28T12:36:44.213Z,0.40
2023-01-28T12:41:51.097Z,0.70
2023-01-28T12:46:57.582Z,0.50
2023-01-28T12:52:05.937Z,0.60
2023-01-28T12:57:13.455Z,0.40
2023-01-28T13:02:31.022Z,0.40
2023-01-28T13:07:40.833Z,0.40
2023-01-28T13:12:43.513Z,0.70
2023-01-28T13:18:05.567Z,0.70
2023-01-28T13:23:31.969Z,0.60
2023-01-28T13:28:33.770Z,0.60
2023-01-28T13:33:38.518Z,0.40
2023-01-28T13:38:40.513Z,0.70
2023-01-28T13:43:42.707Z,0.60
2023-01-28T13:48:54.938Z,0.80
2023-01-28T13:54:07.496Z,0.60
2023-01-28T13:59:27.925Z,0.60
2023-01-28T14:04:41.912Z,0.50
2023-01-28T14:09:46.926Z,0.50
2023-01-28T14:15:11.639Z,0.60
2023-01-28T14:20:26.438Z,0.70
2023-01-28T14:25:37.091Z,0.60
2023-01-28T14:30:54.599Z,0.70
2023-01-28T14:35:56.946Z,0.80
2023-01-28T14:40:58.679Z,0.60
2023-01-28T14:46:09.493Z,0.50
2023-01-28T14:51:36.151Z,0.60
2023-01-28T14:56:56.273Z,0.50
2023-01-28T15:01:59.872Z,0.60
2023-01-28T15:07:15.930Z,0.60
2023-01-28T15:12:18.107Z,0.70
2023-01-28T15:17:28.158Z,0.70
2023-01-28T15:22:30.177Z,0.70
2023-01-28T15:27:32.458Z,0.70
2023-01-28T15:32:34.181Z,0.90
2023-01-28T15:37:36.901Z,0.60
2023-01-28T15:42:40.153Z,1.00
2023-01-28T15:52:45.407Z,0.60
2023-01-28T16:02:51.372Z,0.90
2023-01-28T16:07:54.410Z,1.00
2023-01-28T16:13:05.089Z,0.70
2023-01-28T16:18:07.312Z,0.80
2023-01-28T16:23:24.540Z,0.80
2023-01-28T16:28:26.775Z,0.80
2023-01-28T16:33:28.511Z,0.70
2023-01-28T16:38:30.889Z,0.90
2023-01-28T16:48:39.513Z,1.00
2023-01-28T16:53:42.650Z,0.80
2023-01-28T16:58:46.701Z,1.20
2023-01-28T17:03:48.684Z,1.00
2023-01-28T17:08:50.698Z,0.70
2023-01-28T17:13:52.343Z,0.60
2023-01-28T17:18:54.749Z,1.00
2023-01-28T17:23:58.253Z,1.10
2023-01-28T17:29:01.194Z,0.90
2023-01-28T17:34:03.182Z,0.80
2023-01-28T17:39:07.445Z,0.70
2023-01-28T17:44:14.938Z,1.30
2023-01-28T17:49:16.627Z,1.10
2023-01-28T17:54:19.030Z,0.80
2023-01-28T17:59:22.655Z,0.90
2023-01-28T18:04:26.017Z,0.90
2023-01-28T18:09:27.881Z,1.20
2023-01-28T18:14:29.771Z,1.20
2023-01-28T18:19:32.049Z,0.60
2023-01-28T18:24:34.003Z,0.50
2023-01-28T18:29:35.933Z,0.80
2023-01-28T18:34:37.930Z,0.70
2023-01-28T18:39:39.858Z,0.50
2023-01-28T18:44:41.797Z,0.40
2023-01-28T18:49:43.735Z,0.70
2023-01-28T18:54:45.680Z,0.60
2023-01-28T18:59:47.669Z,0.50
2023-01-28T19:04:49.382Z,0.40
2023-01-28T19:09:51.325Z,0.50
2023-01-28T19:14:53.113Z,0.60
2023-01-28T19:19:54.928Z,0.50
2023-01-28T19:24:56.628Z,0.70
2023-01-28T19:29:58.493Z,0.70
2023-01-28T19:35:00.359Z,0.50
2023-01-28T19:40:02.074Z,0.60
2023-01-28T19:45:06.061Z,0.50
2023-01-28T19:50:08.662Z,0.60
2023-01-28T19:55:10.638Z,0.50
2023-01-28T20:00:12.741Z,0.30
2023-01-28T20:05:14.882Z,0.50
2023-01-28T20:10:17.783Z,0.60
2023-01-28T20:15:19.510Z,0.50
2023-01-28T20:20:21.419Z,0.50
2023-01-28T20:25:23.398Z,0.60
2023-01-28T20:30:26.983Z,0.50
2023-01-28T20:35:28.810Z,0.40
2023-01-28T20:40:31.923Z,0.50
2023-01-28T20:45:33.867Z,0.70
2023-01-28T20:50:36.306Z,0.70
2023-01-28T20:55:38.306Z,0.50
2023-01-28T21:00:40.009Z,0.30
2023-01-28T21:05:44.729Z,0.70
2023-01-28T21:10:46.645Z,0.70
2023-01-28T21:15:53.196Z,0.70
2023-01-28T21:20:55.809Z,0.60
2023-01-28T21:26:02.115Z,0.80
2023-01-28T21:31:25.351Z,0.40
2023-01-28T21:36:27.860Z,0.70
2023-01-28T21:41:29.584Z,0.70
2023-01-28T21:46:33.680Z,0.70
2023-01-28T21:51:36.381Z,0.60
2023-01-28T21:56:38.482Z,0.90
2023-01-28T22:01:40.199Z,0.50
2023-01-28T22:06:42.604Z,0.60
2023-01-28T22:11:45.080Z,0.60
2023-01-28T22:16:49.461Z,0.50
2023-01-28T22:21:51.493Z,0.50
2023-01-28T22:26:54.329Z,0.50
2023-01-28T22:31:56.955Z,0.60
2023-01-28T22:36:58.709Z,0.30
2023-01-28T22:42:00.674Z,0.60
2023-01-28T22:47:02.913Z,0.50
2023-01-28T22:52:04.697Z,0.60
2023-01-28T22:57:06.499Z,0.60
2023-01-28T23:02:08.785Z,0.50
2023-01-28T23:07:12.526Z,0.50
2023-01-28T23:12:14.339Z,0.60
2023-01-28T23:17:34.598Z,0.60
2023-01-28T23:22:55.020Z,0.40
2023-01-28T23:27:57.004Z,0.50
2023-01-28T23:33:01.492Z,0.50
2023-01-28T23:38:03.334Z,0.30
2023-01-28T23:43:05.779Z,0.60
2023-01-28T23:48:26.760Z,0.50
2023-01-28T23:53:28.387Z,0.50
2023-01-28T23:58:42.969Z,0.50
